Yera Yona — EB4403 — position and weather

sailwx.info

Track history (hours):
 
Tides and Currents Weather Stations Pressure Air Temp Water Temp Dewpoint Dewpoint Depression Visibility Wind Speed Wind Dir Waves Ship Positions

Yera Yona

Last reported at 2017-Nov-11 14:02 UTC. Time now 2017-Nov-23 01:53 UTC.
Position N 27°49' W 015°07'.
Warning: this ship's position is 11 days out of date.

Length 16 m; draft 3 m.

Type: Fishing. MMSI: 224178660.

Date/timePositionNaut miles runAvg speedWind from/ knotsBaromVisibWave heightAir tempDewpointWater temp
2017-Nov-11 14:02N 27°49' W 015°07'0 8.4
2017-Nov-11 13:59N 27°49' W 015°07'4 8.5
2017-Nov-11 13:29N 27°50' W 015°03'24 6.4
2017-Nov-11 09:42N 27°56' W 014°36'9 4.2
2017-Nov-11 07:34N 28°03' W 014°30'7 0.5
2017-Nov-10 18:58N 28°03' W 014°23'6 7.9
2017-Nov-10 18:15N 28°03' W 014°29'1 3.3
2017-Nov-10 17:55N 28°03' W 014°30'0 0.0
2017-Nov-10 17:28N 28°04' W 014°30'0 0.0
2017-Nov-10 16:38N 28°04' W 014°30'0 0.0
2017-Nov-10 16:27N 28°04' W 014°30'23 0.5
2017-Nov-08 15:30N 27°54' W 014°54'4 7.9
2017-Nov-08 14:59N 27°53' W 014°59'4 7.8
2017-Nov-08 14:25N 27°52' W 015°03'4 7.8
2017-Nov-08 13:55N 27°51' W 015°08'  
2017-Nov-02 14:00N 27°53' W 015°09'4 8.7
2017-Nov-02 13:30N 27°54' W 015°04'  
Track history (hours):
 
Tides and Currents Weather Stations Pressure Air Temp Water Temp Dewpoint Dewpoint Depression Visibility Wind Speed Wind Dir Waves Ship Positions

Yera Yona

Last reported at 2017-Nov-11 14:02 UTC. Time now 2017-Nov-23 01:53 UTC.
Position N 27°49' W 015°07'.
Warning: this ship's position is 11 days out of date.

Length 16 m; draft 3 m.

Type: Fishing. MMSI: 224178660.

Date/timePositionNaut miles runAvg speedWind from/ knotsBaromVisibWave heightAir tempDewpointWater temp
2017-Nov-11 14:02N 27°49' W 015°07'0 8.4
2017-Nov-11 13:59N 27°49' W 015°07'4 8.5
2017-Nov-11 13:29N 27°50' W 015°03'24 6.4
2017-Nov-11 09:42N 27°56' W 014°36'9 4.2
2017-Nov-11 07:34N 28°03' W 014°30'7 0.5
2017-Nov-10 18:58N 28°03' W 014°23'6 7.9
2017-Nov-10 18:15N 28°03' W 014°29'1 3.3
2017-Nov-10 17:55N 28°03' W 014°30'0 0.0
2017-Nov-10 17:28N 28°04' W 014°30'0 0.0
2017-Nov-10 16:38N 28°04' W 014°30'0 0.0
2017-Nov-10 16:27N 28°04' W 014°30'23 0.5
2017-Nov-08 15:30N 27°54' W 014°54'4 7.9
2017-Nov-08 14:59N 27°53' W 014°59'4 7.8
2017-Nov-08 14:25N 27°52' W 015°03'4 7.8
2017-Nov-08 13:55N 27°51' W 015°08'  
2017-Nov-02 14:00N 27°53' W 015°09'4 8.7
2017-Nov-02 13:30N 27°54' W 015°04'  

Dump ship's entire track history